createdAt,value
2018-12-08T00:00:22.329Z,992.42
2018-12-08T00:01:22.243Z,992.46
2018-12-08T00:02:22.154Z,992.49
2018-12-08T00:03:22.079Z,992.43
2018-12-08T00:04:21.995Z,992.57
2018-12-08T00:05:21.905Z,992.52
2018-12-08T00:06:21.829Z,992.52
2018-12-08T00:07:21.742Z,992.61
2018-12-08T00:08:21.654Z,992.52
2018-12-08T00:09:21.570Z,992.48
2018-12-08T00:10:21.491Z,992.51
2018-12-08T00:11:21.405Z,992.63
2018-12-08T00:12:21.318Z,992.45
2018-12-08T00:13:21.244Z,992.63
2018-12-08T00:14:21.155Z,992.62
2018-12-08T00:15:21.067Z,992.69
2018-12-08T00:16:20.992Z,992.62
2018-12-08T00:17:20.905Z,992.62
2018-12-08T00:18:20.817Z,992.69
2018-12-08T00:19:20.756Z,992.83
2018-12-08T00:20:20.655Z,992.87
2018-12-08T00:21:20.568Z,992.83
2018-12-08T00:22:20.493Z,992.90
2018-12-08T00:23:20.406Z,992.87
2018-12-08T00:24:20.319Z,993.01
2018-12-08T00:25:20.245Z,992.90
2018-12-08T00:26:20.156Z,993.02
2018-12-08T00:27:20.069Z,993.20
2018-12-08T00:28:19.983Z,993.22
2018-12-08T00:29:19.908Z,993.35
2018-12-08T00:30:19.820Z,993.24
2018-12-08T00:31:19.732Z,993.36
2018-12-08T00:32:19.656Z,993.33
2018-12-08T00:33:19.569Z,993.35
2018-12-08T00:34:19.484Z,993.54
2018-12-08T00:35:19.396Z,993.60
2018-12-08T00:36:19.326Z,993.37
2018-12-08T00:37:19.231Z,993.59
2018-12-08T00:38:19.148Z,993.67
2018-12-08T00:39:19.082Z,993.56
2018-12-08T00:40:18.983Z,993.68
2018-12-08T00:41:18.895Z,993.66
2018-12-08T00:42:18.820Z,993.75
2018-12-08T00:43:18.733Z,993.86
2018-12-08T00:44:18.646Z,993.87
2018-12-08T00:45:18.583Z,993.90
2018-12-08T00:46:18.484Z,993.94
2018-12-08T00:47:18.395Z,993.96
2018-12-08T00:48:18.308Z,994.00
2018-12-08T00:49:18.238Z,994.05
2018-12-08T00:50:18.148Z,994.07
2018-12-08T00:51:18.066Z,994.17
2018-12-08T00:52:17.972Z,994.14
2018-12-08T00:53:17.896Z,994.26
2018-12-08T00:54:17.810Z,994.25
2018-12-08T00:55:17.725Z,994.23
2018-12-08T00:56:17.648Z,994.07
2018-12-08T00:57:17.560Z,994.25
2018-12-08T00:58:17.471Z,994.09
2018-12-08T00:59:17.385Z,994.21
2018-12-08T01:00:17.314Z,994.24
2018-12-08T01:01:17.223Z,994.24
2018-12-08T01:02:17.228Z,994.12
2018-12-08T01:03:17.047Z,994.24
2018-12-08T01:04:16.985Z,994.28
2018-12-08T01:05:16.886Z,994.29
2018-12-08T01:06:16.797Z,994.29
2018-12-08T01:07:16.710Z,994.34
2018-12-08T01:08:16.636Z,994.36
2018-12-08T01:09:16.548Z,994.54
2018-12-08T01:10:16.461Z,994.52
2018-12-08T01:11:16.375Z,994.56
2018-12-08T01:12:16.301Z,994.61
2018-12-08T01:13:16.211Z,994.66
2018-12-08T01:14:16.123Z,994.63
2018-12-08T01:15:16.049Z,994.62
2018-12-08T01:16:16.066Z,994.67
2018-12-08T01:17:15.886Z,994.81
2018-12-08T01:18:15.787Z,994.65
2018-12-08T01:19:15.767Z,994.75
2018-12-08T01:20:15.624Z,994.80
2018-12-08T01:21:15.536Z,994.92
2018-12-08T01:22:15.449Z,994.91
2018-12-08T01:23:15.362Z,994.88
2018-12-08T01:24:15.287Z,994.83
2018-12-08T01:25:15.200Z,994.79
2018-12-08T01:26:15.112Z,994.91
2018-12-08T01:27:15.039Z,994.87
2018-12-08T01:28:14.950Z,994.94
2018-12-08T01:29:14.865Z,995.06
2018-12-08T01:30:14.776Z,995.01
2018-12-08T01:31:14.690Z,995.00
2018-12-08T01:32:14.613Z,994.98
2018-12-08T01:33:14.526Z,995.03
2018-12-08T01:34:14.439Z,995.03
2018-12-08T01:35:14.352Z,995.05
2018-12-08T01:36:14.280Z,994.97
2018-12-08T01:37:14.193Z,995.08
2018-12-08T01:38:14.105Z,994.98
2018-12-08T01:39:14.031Z,995.02
2018-12-08T01:40:13.943Z,994.98
2018-12-08T01:41:13.855Z,995.02
2018-12-08T01:42:13.768Z,995.04
2018-12-08T01:43:13.682Z,995.03
2018-12-08T01:44:13.605Z,995.01
2018-12-08T01:45:13.518Z,995.00
2018-12-08T01:46:13.430Z,995.06
2018-12-08T01:47:13.356Z,995.09
2018-12-08T01:48:13.269Z,995.00
2018-12-08T01:49:13.180Z,995.06
2018-12-08T01:50:13.094Z,995.08
2018-12-08T01:51:13.019Z,995.00
2018-12-08T01:52:12.931Z,995.07
2018-12-08T01:53:12.845Z,995.03
2018-12-08T01:54:12.769Z,995.03
2018-12-08T01:55:12.680Z,995.02
2018-12-08T01:56:12.595Z,995.06
2018-12-08T01:57:12.506Z,995.03
2018-12-08T01:58:12.434Z,995.08
2018-12-08T01:59:12.345Z,995.03
2018-12-08T02:00:12.269Z,995.11
2018-12-08T02:01:12.171Z,995.18
2018-12-08T02:02:12.083Z,995.20
2018-12-08T02:03:12.008Z,995.27
2018-12-08T02:04:11.920Z,995.23
2018-12-08T02:05:11.833Z,995.25
2018-12-08T02:06:11.746Z,995.25
2018-12-08T02:07:11.670Z,995.29
2018-12-08T02:08:11.582Z,995.25
2018-12-08T02:09:11.500Z,995.36
2018-12-08T02:10:11.422Z,995.37
2018-12-08T02:11:11.333Z,995.38
2018-12-08T02:12:11.251Z,995.39
2018-12-08T02:13:11.159Z,995.34
2018-12-08T02:14:11.086Z,995.47
2018-12-08T02:15:10.997Z,995.47
2018-12-08T02:16:10.920Z,995.47
2018-12-08T02:17:10.824Z,995.42
2018-12-08T02:18:10.752Z,995.49
2018-12-08T02:19:10.658Z,995.45
2018-12-08T02:20:10.571Z,995.44
2018-12-08T02:21:10.483Z,995.55
2018-12-08T02:22:10.411Z,995.52
2018-12-08T02:23:10.323Z,995.43
2018-12-08T02:24:10.236Z,995.52
2018-12-08T02:25:10.148Z,995.50
2018-12-08T02:26:10.072Z,995.52
2018-12-08T02:27:09.983Z,995.57
2018-12-08T02:28:09.897Z,995.59
2018-12-08T02:29:09.809Z,995.60
2018-12-08T02:30:09.754Z,995.54
2018-12-08T02:31:09.647Z,995.51
2018-12-08T02:32:09.560Z,995.53
2018-12-08T02:33:09.474Z,995.48
2018-12-08T02:34:09.398Z,995.52
2018-12-08T02:35:09.309Z,995.51
2018-12-08T02:36:09.224Z,995.51
2018-12-08T02:37:09.137Z,995.56
2018-12-08T02:38:09.060Z,995.58
2018-12-08T02:39:08.974Z,995.54
2018-12-08T02:40:08.885Z,995.49
2018-12-08T02:41:08.799Z,995.36
2018-12-08T02:42:08.723Z,995.42
2018-12-08T02:43:08.636Z,995.39
2018-12-08T02:44:08.557Z,995.42
2018-12-08T02:45:08.461Z,995.44
2018-12-08T02:46:08.386Z,995.53
2018-12-08T02:47:08.299Z,995.50
2018-12-08T02:48:08.212Z,995.44
2018-12-08T02:49:08.128Z,995.48
2018-12-08T02:50:08.048Z,995.51
2018-12-08T02:51:07.968Z,995.48
2018-12-08T02:52:07.875Z,995.49
2018-12-08T02:53:07.798Z,995.51
2018-12-08T02:54:07.711Z,995.57
2018-12-08T02:55:07.625Z,995.61
2018-12-08T02:56:07.535Z,995.63
2018-12-08T02:57:07.454Z,995.63
2018-12-08T02:58:07.374Z,995.67
2018-12-08T02:59:07.287Z,995.77
2018-12-08T03:00:07.203Z,995.74
2018-12-08T03:01:07.124Z,995.74
2018-12-08T03:02:07.038Z,995.83
2018-12-08T03:03:06.949Z,995.85
2018-12-08T03:04:06.861Z,995.82
2018-12-08T03:05:06.786Z,995.78
2018-12-08T03:06:06.701Z,995.72
2018-12-08T03:07:06.624Z,995.65
2018-12-08T03:08:06.530Z,995.61
2018-12-08T03:09:06.452Z,995.70
2018-12-08T03:10:06.364Z,995.67
2018-12-08T03:11:06.291Z,995.68
2018-12-08T03:12:06.186Z,995.74
2018-12-08T03:13:06.116Z,995.76
2018-12-08T03:14:06.025Z,995.77
2018-12-08T03:15:05.943Z,995.78
2018-12-08T03:16:05.853Z,995.88
2018-12-08T03:17:05.776Z,995.91
2018-12-08T03:18:05.687Z,995.86
2018-12-08T03:19:05.603Z,995.96
2018-12-08T03:20:05.525Z,995.97
2018-12-08T03:21:05.438Z,995.96
2018-12-08T03:22:05.353Z,996.01
2018-12-08T03:23:05.268Z,996.02
2018-12-08T03:24:05.188Z,995.97
2018-12-08T03:25:05.101Z,996.06
2018-12-08T03:26:05.026Z,996.09
2018-12-08T03:27:04.926Z,996.09
2018-12-08T03:28:04.851Z,996.18
2018-12-08T03:29:04.774Z,996.18
2018-12-08T03:30:04.677Z,996.15
2018-12-08T03:31:04.590Z,996.16
2018-12-08T03:32:04.527Z,996.16
2018-12-08T03:33:04.431Z,996.15
2018-12-08T03:34:04.339Z,996.14
2018-12-08T03:35:04.252Z,996.13
2018-12-08T03:36:04.189Z,996.15
2018-12-08T03:37:04.089Z,996.07
2018-12-08T03:38:04.004Z,996.12
2018-12-08T03:39:03.915Z,996.10
2018-12-08T03:40:03.840Z,996.15
2018-12-08T03:41:03.755Z,996.19
2018-12-08T03:42:03.683Z,996.18
2018-12-08T03:43:03.584Z,996.17
2018-12-08T03:44:03.507Z,996.19
2018-12-08T03:45:03.416Z,996.21
2018-12-08T03:46:03.331Z,996.23
2018-12-08T03:47:03.241Z,996.20
2018-12-08T03:48:03.166Z,996.27
2018-12-08T03:49:03.080Z,996.39
2018-12-08T03:50:02.990Z,996.40
2018-12-08T03:51:02.906Z,996.47
2018-12-08T03:52:02.829Z,996.41
2018-12-08T03:53:02.742Z,996.44
2018-12-08T03:54:02.661Z,996.42
2018-12-08T03:55:02.600Z,996.43
2018-12-08T03:56:02.496Z,996.39
2018-12-08T03:57:02.405Z,996.51
2018-12-08T03:58:02.318Z,996.39
2018-12-08T03:59:02.229Z,996.41
2018-12-08T04:00:02.159Z,996.49
2018-12-08T04:01:02.068Z,996.38
2018-12-08T04:02:01.980Z,996.38
2018-12-08T04:03:01.892Z,996.42
2018-12-08T04:04:01.823Z,996.41
2018-12-08T04:05:01.730Z,996.35
2018-12-08T04:06:01.643Z,996.35
2018-12-08T04:07:01.567Z,996.36
2018-12-08T04:08:01.481Z,996.30
2018-12-08T04:09:01.407Z,996.32
2018-12-08T04:10:01.308Z,996.29
2018-12-08T04:11:01.218Z,996.34
2018-12-08T04:12:01.146Z,996.40
2018-12-08T04:13:01.056Z,996.41
2018-12-08T04:14:00.973Z,996.46
2018-12-08T04:15:00.881Z,996.43
2018-12-08T04:16:00.807Z,996.45
2018-12-08T04:17:00.719Z,996.44
2018-12-08T04:18:00.631Z,996.48
2018-12-08T04:19:00.558Z,996.44
2018-12-08T04:20:00.459Z,996.54
2018-12-08T04:21:00.387Z,996.50
2018-12-08T04:22:00.294Z,996.51
2018-12-08T04:23:00.207Z,996.55
2018-12-08T04:24:00.118Z,996.57
2018-12-08T04:25:00.044Z,996.62
2018-12-08T04:25:59.958Z,996.56
2018-12-08T04:26:59.874Z,996.59
2018-12-08T04:27:59.790Z,996.65
2018-12-08T04:28:59.708Z,996.63
2018-12-08T04:29:59.634Z,996.68
2018-12-08T04:30:59.532Z,996.68
2018-12-08T04:31:59.460Z,996.68
2018-12-08T04:32:59.372Z,996.63
2018-12-08T04:33:59.286Z,996.70
2018-12-08T04:34:59.194Z,996.71
2018-12-08T04:35:59.108Z,996.74
2018-12-08T04:36:59.021Z,996.76
2018-12-08T04:37:58.948Z,996.72
2018-12-08T04:38:58.859Z,996.71
2018-12-08T04:39:58.771Z,996.67
2018-12-08T04:40:58.696Z,996.73
2018-12-08T04:41:58.608Z,996.74
2018-12-08T04:42:58.629Z,996.79
2018-12-08T04:43:58.434Z,996.81
2018-12-08T04:44:58.346Z,996.77
2018-12-08T04:45:58.285Z,996.80
2018-12-08T04:46:58.184Z,996.81
2018-12-08T04:47:58.100Z,996.87
2018-12-08T04:48:58.009Z,996.89
2018-12-08T04:49:57.934Z,996.88
2018-12-08T04:50:57.846Z,996.90
2018-12-08T04:51:57.763Z,996.96
2018-12-08T04:52:57.673Z,997.01
2018-12-08T04:53:57.598Z,997.06
2018-12-08T04:54:57.511Z,997.05
2018-12-08T04:55:57.422Z,997.10
2018-12-08T04:56:57.334Z,997.10
2018-12-08T04:57:57.248Z,997.09
2018-12-08T04:58:57.172Z,997.13
2018-12-08T04:59:57.085Z,997.13
2018-12-08T05:00:56.997Z,997.10
2018-12-08T05:01:56.910Z,997.10
2018-12-08T05:02:56.836Z,997.19
2018-12-08T05:03:56.749Z,997.21
2018-12-08T05:04:56.663Z,997.30
2018-12-08T05:05:56.573Z,997.32
2018-12-08T05:06:56.498Z,997.37
2018-12-08T05:07:56.411Z,997.39
2018-12-08T05:08:56.325Z,997.33
2018-12-08T05:09:56.235Z,997.34
2018-12-08T05:10:56.150Z,997.27
2018-12-08T05:11:56.074Z,997.34
2018-12-08T05:12:55.989Z,997.33
2018-12-08T05:13:55.899Z,997.32
2018-12-08T05:14:55.825Z,997.36
2018-12-08T05:15:55.738Z,997.38
2018-12-08T05:16:55.662Z,997.40
2018-12-08T05:17:55.562Z,997.40
2018-12-08T05:18:55.477Z,997.40
2018-12-08T05:19:55.388Z,997.33
2018-12-08T05:20:55.313Z,997.34
2018-12-08T05:21:55.225Z,997.31
2018-12-08T05:22:55.138Z,997.36
2018-12-08T05:23:55.051Z,997.31
2018-12-08T05:24:54.975Z,997.37
2018-12-08T05:25:54.889Z,997.41
2018-12-08T05:26:54.802Z,997.34
2018-12-08T05:27:54.715Z,997.40
2018-12-08T05:28:54.638Z,997.42
2018-12-08T05:29:54.552Z,997.43
2018-12-08T05:30:54.464Z,997.40
2018-12-08T05:31:54.376Z,997.41
2018-12-08T05:32:54.289Z,997.42
2018-12-08T05:33:54.215Z,997.49
2018-12-08T05:34:54.128Z,997.48
2018-12-08T05:35:54.039Z,997.47
2018-12-08T05:36:53.964Z,997.48
2018-12-08T05:37:53.877Z,997.40
2018-12-08T05:38:53.791Z,997.51
2018-12-08T05:39:53.702Z,997.56
2018-12-08T05:40:53.615Z,997.52
2018-12-08T05:41:53.541Z,997.52
2018-12-08T05:42:53.452Z,997.47
2018-12-08T05:43:53.366Z,997.48
2018-12-08T05:44:53.278Z,997.53
2018-12-08T05:45:53.191Z,997.53
2018-12-08T05:46:53.117Z,997.53
2018-12-08T05:47:53.029Z,997.55
2018-12-08T05:48:52.942Z,997.60
2018-12-08T05:49:52.854Z,997.50
2018-12-08T05:50:52.779Z,997.55
2018-12-08T05:51:52.692Z,997.52
2018-12-08T05:52:52.604Z,997.58
2018-12-08T05:53:52.518Z,997.55
2018-12-08T05:54:52.430Z,997.55
2018-12-08T05:55:52.356Z,997.52
2018-12-08T05:56:52.268Z,997.56
2018-12-08T05:57:52.180Z,997.50
2018-12-08T05:58:52.094Z,997.56
2018-12-08T05:59:52.022Z,997.53
2018-12-08T06:00:51.933Z,997.62
2018-12-08T06:01:51.844Z,997.61
2018-12-08T06:02:51.769Z,997.56
2018-12-08T06:03:51.669Z,997.57
2018-12-08T06:04:51.594Z,997.55
2018-12-08T06:05:51.505Z,997.48
2018-12-08T06:06:51.430Z,997.47
2018-12-08T06:07:51.331Z,997.54
2018-12-08T06:08:51.257Z,997.52
2018-12-08T06:09:51.174Z,997.55
2018-12-08T06:10:51.081Z,997.51
2018-12-08T06:11:50.994Z,997.51
2018-12-08T06:12:50.907Z,997.48
2018-12-08T06:13:50.832Z,997.52
2018-12-08T06:14:50.746Z,997.50
2018-12-08T06:15:50.657Z,997.49
2018-12-08T06:16:50.569Z,997.48
2018-12-08T06:17:50.483Z,997.39
2018-12-08T06:18:50.420Z,997.47
2018-12-08T06:19:50.320Z,997.49
2018-12-08T06:20:50.232Z,997.53
2018-12-08T06:21:50.216Z,997.43
2018-12-08T06:22:50.071Z,997.43
2018-12-08T06:23:49.982Z,997.46
2018-12-08T06:24:49.896Z,997.38
2018-12-08T06:25:49.808Z,997.51
2018-12-08T06:26:49.721Z,997.46
2018-12-08T06:27:49.645Z,997.49
2018-12-08T06:28:49.557Z,997.44
2018-12-08T06:29:49.472Z,997.40
2018-12-08T06:30:49.384Z,997.42
2018-12-08T06:31:49.321Z,997.37
2018-12-08T06:32:49.222Z,997.42
2018-12-08T06:33:49.147Z,997.35
2018-12-08T06:34:49.049Z,997.40
2018-12-08T06:35:48.959Z,997.38
2018-12-08T06:36:48.884Z,997.38
2018-12-08T06:37:48.798Z,997.43
2018-12-08T06:38:48.709Z,997.41
2018-12-08T06:39:48.629Z,997.45
2018-12-08T06:40:48.535Z,997.47
2018-12-08T06:41:48.459Z,997.50
2018-12-08T06:42:48.373Z,997.52
2018-12-08T06:43:48.285Z,997.60
2018-12-08T06:44:48.199Z,997.57
2018-12-08T06:45:48.112Z,997.55
2018-12-08T06:46:48.036Z,997.56
2018-12-08T06:47:47.949Z,997.59
2018-12-08T06:48:47.860Z,997.60
2018-12-08T06:49:47.774Z,997.58
2018-12-08T06:50:47.686Z,997.57
2018-12-08T06:51:47.612Z,997.56
2018-12-08T06:52:47.524Z,997.57
2018-12-08T06:53:47.436Z,997.53
2018-12-08T06:54:47.352Z,997.56
2018-12-08T06:55:47.263Z,997.52
2018-12-08T06:56:47.194Z,997.48
2018-12-08T06:57:47.099Z,997.54
2018-12-08T06:58:47.012Z,997.55
2018-12-08T06:59:46.926Z,997.58
2018-12-08T07:00:46.843Z,997.60
2018-12-08T07:01:46.761Z,997.59
2018-12-08T07:02:46.675Z,997.63
2018-12-08T07:03:46.601Z,997.63
2018-12-08T07:04:46.501Z,997.59
2018-12-08T07:05:46.414Z,997.56
2018-12-08T07:06:46.343Z,997.56
2018-12-08T07:07:46.251Z,997.61
2018-12-08T07:08:46.179Z,997.58
2018-12-08T07:09:46.076Z,997.55
2018-12-08T07:10:45.988Z,997.56
2018-12-08T07:11:45.914Z,997.56
2018-12-08T07:12:45.827Z,997.59
2018-12-08T07:13:45.738Z,997.57
2018-12-08T07:14:45.651Z,997.56
2018-12-08T07:15:45.564Z,997.62
2018-12-08T07:16:45.489Z,997.55
2018-12-08T07:17:45.402Z,997.50
2018-12-08T07:18:45.328Z,997.56
2018-12-08T07:19:45.231Z,997.40
2018-12-08T07:20:45.140Z,997.51
2018-12-08T07:21:45.064Z,997.49
2018-12-08T07:22:44.978Z,997.52
2018-12-08T07:23:44.890Z,997.49
2018-12-08T07:24:44.803Z,997.47
2018-12-08T07:25:44.727Z,997.42
2018-12-08T07:26:44.629Z,997.45
2018-12-08T07:27:44.553Z,997.48
2018-12-08T07:28:44.465Z,997.43
2018-12-08T07:29:44.379Z,997.47
2018-12-08T07:30:44.290Z,997.46
2018-12-08T07:31:44.206Z,997.47
2018-12-08T07:32:44.129Z,997.42
2018-12-08T07:33:44.041Z,997.48
2018-12-08T07:34:43.954Z,997.41
2018-12-08T07:35:43.880Z,997.38
2018-12-08T07:36:43.779Z,997.47
2018-12-08T07:37:43.706Z,997.46
2018-12-08T07:38:43.616Z,997.39
2018-12-08T07:39:43.529Z,997.43
2018-12-08T07:40:43.442Z,997.37
2018-12-08T07:41:43.355Z,997.36
2018-12-08T07:42:43.280Z,997.44
2018-12-08T07:43:43.192Z,997.42
2018-12-08T07:44:43.105Z,997.41
2018-12-08T07:45:43.018Z,997.42
2018-12-08T07:46:42.930Z,997.50
2018-12-08T07:47:42.855Z,997.44
2018-12-08T07:48:42.767Z,997.39
2018-12-08T07:49:42.680Z,997.41
2018-12-08T07:50:42.592Z,997.48
2018-12-08T07:51:42.506Z,997.48
2018-12-08T07:52:42.430Z,997.53
2018-12-08T07:53:42.342Z,997.48
2018-12-08T07:54:42.256Z,997.45
2018-12-08T07:55:42.169Z,997.47
2018-12-08T07:56:42.081Z,997.44
2018-12-08T07:57:42.006Z,997.40
2018-12-08T07:58:41.918Z,997.40
2018-12-08T07:59:41.834Z,997.52
2018-12-08T08:00:41.743Z,997.50
2018-12-08T08:01:41.682Z,997.43
2018-12-08T08:02:41.570Z,997.41
2018-12-08T08:03:41.507Z,997.40
2018-12-08T08:04:41.407Z,997.42
2018-12-08T08:05:41.319Z,997.35
2018-12-08T08:06:41.233Z,997.35
2018-12-08T08:07:41.156Z,997.37
2018-12-08T08:08:41.069Z,997.29
2018-12-08T08:09:40.982Z,997.36
2018-12-08T08:10:40.895Z,997.38
2018-12-08T08:11:40.808Z,997.34
2018-12-08T08:12:40.798Z,997.31
2018-12-08T08:13:40.645Z,997.32
2018-12-08T08:14:40.558Z,997.21
2018-12-08T08:15:40.469Z,997.34
2018-12-08T08:16:40.396Z,997.23
2018-12-08T08:17:40.316Z,997.19
2018-12-08T08:18:40.219Z,997.22
2018-12-08T08:19:40.134Z,997.25
2018-12-08T08:20:40.047Z,997.29
2018-12-08T08:21:39.969Z,997.16
2018-12-08T08:22:39.884Z,997.24
2018-12-08T08:23:39.795Z,997.25
2018-12-08T08:24:39.709Z,997.22
2018-12-08T08:25:39.634Z,997.23
2018-12-08T08:26:39.547Z,997.26
2018-12-08T08:27:39.459Z,997.31
2018-12-08T08:28:39.371Z,997.19
2018-12-08T08:29:39.311Z,997.26
2018-12-08T08:30:39.208Z,997.25
2018-12-08T08:31:39.122Z,997.22
2018-12-08T08:32:39.034Z,997.19
2018-12-08T08:33:38.947Z,997.18
2018-12-08T08:34:38.885Z,997.23
2018-12-08T08:35:38.785Z,997.19
2018-12-08T08:36:38.696Z,997.21
2018-12-08T08:37:38.613Z,997.13
2018-12-08T08:38:38.535Z,997.19
2018-12-08T08:39:38.447Z,997.14
2018-12-08T08:40:38.361Z,997.19
2018-12-08T08:41:38.272Z,997.20
2018-12-08T08:42:38.188Z,997.15
2018-12-08T08:43:38.111Z,997.14
2018-12-08T08:44:38.022Z,997.13
2018-12-08T08:45:37.938Z,997.02
2018-12-08T08:46:37.849Z,997.01
2018-12-08T08:47:37.773Z,997.10
2018-12-08T08:48:37.686Z,997.04
2018-12-08T08:49:37.598Z,997.03
2018-12-08T08:50:37.512Z,996.97
2018-12-08T08:51:37.438Z,997.03
2018-12-08T08:52:37.348Z,996.96
2018-12-08T08:53:37.264Z,997.03
2018-12-08T08:54:37.176Z,997.04
2018-12-08T08:55:37.088Z,997.06
2018-12-08T08:56:37.012Z,997.07
2018-12-08T08:57:36.925Z,996.98
2018-12-08T08:58:36.837Z,996.97
2018-12-08T08:59:36.749Z,996.97
2018-12-08T09:00:36.674Z,996.97
2018-12-08T09:01:36.589Z,997.00
2018-12-08T09:02:36.502Z,996.99
2018-12-08T09:03:36.424Z,996.93
2018-12-08T09:04:36.338Z,996.98
2018-12-08T09:05:36.262Z,996.94
2018-12-08T09:06:36.162Z,997.00
2018-12-08T09:07:36.076Z,996.93
2018-12-08T09:08:36.001Z,996.96
2018-12-08T09:09:35.916Z,996.98
2018-12-08T09:10:35.827Z,996.91
2018-12-08T09:11:35.739Z,996.96
2018-12-08T09:12:35.664Z,996.98
2018-12-08T09:13:35.576Z,996.91
2018-12-08T09:14:35.489Z,996.99
2018-12-08T09:15:35.401Z,996.92
2018-12-08T09:16:35.327Z,996.87
2018-12-08T09:17:35.241Z,996.95
2018-12-08T09:18:35.152Z,996.91
2018-12-08T09:19:35.065Z,996.82
2018-12-08T09:20:34.990Z,996.88
2018-12-08T09:21:34.902Z,996.85
2018-12-08T09:22:34.815Z,996.85
2018-12-08T09:23:34.728Z,996.89
2018-12-08T09:24:34.656Z,996.85
2018-12-08T09:25:34.567Z,996.82
2018-12-08T09:26:34.477Z,996.88
2018-12-08T09:27:34.392Z,996.86
2018-12-08T09:28:34.315Z,996.84
2018-12-08T09:29:34.228Z,996.83
2018-12-08T09:30:34.141Z,996.87
2018-12-08T09:31:34.070Z,996.85
2018-12-08T09:32:33.978Z,996.77
2018-12-08T09:33:33.892Z,996.89
2018-12-08T09:34:33.805Z,996.86
2018-12-08T09:35:33.728Z,996.82
2018-12-08T09:36:33.642Z,996.75
2018-12-08T09:37:33.566Z,996.81
2018-12-08T09:38:33.468Z,996.83
2018-12-08T09:39:33.393Z,996.73
2018-12-08T09:40:33.314Z,996.84
2018-12-08T09:41:33.217Z,996.72
2018-12-08T09:42:33.131Z,996.77
2018-12-08T09:43:33.055Z,996.72
2018-12-08T09:44:32.968Z,996.73
2018-12-08T09:45:32.880Z,996.73
2018-12-08T09:46:32.818Z,996.66
2018-12-08T09:47:32.741Z,996.69
2018-12-08T09:48:32.630Z,996.68
2018-12-08T09:49:32.556Z,996.65
2018-12-08T09:50:32.468Z,996.58
2018-12-08T09:51:32.381Z,996.60
2018-12-08T09:52:32.294Z,996.65
2018-12-08T09:53:32.218Z,996.49
2018-12-08T09:54:32.130Z,996.57
2018-12-08T09:55:32.044Z,996.54
2018-12-08T09:56:31.958Z,996.54
2018-12-08T09:57:31.885Z,996.54
2018-12-08T09:58:31.796Z,996.42
2018-12-08T09:59:31.707Z,996.51
2018-12-08T10:00:31.645Z,996.54
2018-12-08T10:01:31.545Z,996.51
2018-12-08T10:02:31.456Z,996.57
2018-12-08T10:03:31.372Z,996.42
2018-12-08T10:04:31.295Z,996.37
2018-12-08T10:05:31.207Z,996.40
2018-12-08T10:06:31.121Z,996.45
2018-12-08T10:07:32.743Z,996.40
2018-12-08T10:08:30.958Z,996.34
2018-12-08T10:09:30.871Z,996.37
2018-12-08T10:10:30.784Z,996.43
2018-12-08T10:11:30.708Z,996.33
2018-12-08T10:12:30.623Z,996.30
2018-12-08T10:13:30.533Z,996.39
2018-12-08T10:14:30.459Z,996.37
2018-12-08T10:15:30.372Z,996.27
2018-12-08T10:16:30.284Z,996.30
2018-12-08T10:17:30.197Z,996.30
2018-12-08T10:18:30.122Z,996.29
2018-12-08T10:19:30.035Z,996.24
2018-12-08T10:20:29.948Z,996.17
2018-12-08T10:21:29.864Z,996.13
2018-12-08T10:22:29.785Z,996.12
2018-12-08T10:23:29.698Z,996.20
2018-12-08T10:24:29.610Z,996.08
2018-12-08T10:25:29.537Z,996.09
2018-12-08T10:26:29.451Z,996.15
2018-12-08T10:27:29.360Z,996.08
2018-12-08T10:28:29.274Z,996.12
2018-12-08T10:29:29.199Z,996.07
2018-12-08T10:30:29.111Z,996.06
2018-12-08T10:31:29.023Z,996.12
2018-12-08T10:32:28.952Z,996.12
2018-12-08T10:33:28.861Z,996.10
2018-12-08T10:34:28.774Z,996.08
2018-12-08T10:35:28.699Z,995.97
2018-12-08T10:36:28.610Z,995.98
2018-12-08T10:37:28.524Z,995.91
2018-12-08T10:38:28.436Z,995.96
2018-12-08T10:39:28.361Z,995.98
2018-12-08T10:40:28.276Z,996.02
2018-12-08T10:41:28.186Z,995.95
2018-12-08T10:42:28.100Z,995.93
2018-12-08T10:43:28.030Z,995.90
2018-12-08T10:44:27.939Z,995.89
2018-12-08T10:45:27.850Z,995.86
2018-12-08T10:46:27.778Z,995.82
2018-12-08T10:47:27.699Z,995.86
2018-12-08T10:48:27.601Z,995.86
2018-12-08T10:49:27.514Z,995.81
2018-12-08T10:50:27.439Z,995.94
2018-12-08T10:51:27.352Z,995.83
2018-12-08T10:52:27.262Z,995.76
2018-12-08T10:53:27.188Z,995.78
2018-12-08T10:54:27.101Z,995.75
2018-12-08T10:55:27.015Z,995.76
2018-12-08T10:56:27.037Z,995.71
2018-12-08T10:57:26.851Z,995.62
2018-12-08T10:58:26.855Z,995.62
2018-12-08T10:59:26.692Z,995.66
2018-12-08T11:00:26.637Z,995.63
2018-12-08T11:01:26.526Z,995.68
2018-12-08T11:02:26.426Z,995.74
2018-12-08T11:03:26.354Z,995.63
2018-12-08T11:04:26.264Z,995.65
2018-12-08T11:05:26.188Z,995.58
2018-12-08T11:06:26.089Z,995.62
2018-12-08T11:07:26.027Z,995.66
2018-12-08T11:08:25.928Z,995.61
2018-12-08T11:09:25.839Z,995.66
2018-12-08T11:10:25.764Z,995.65
2018-12-08T11:11:25.678Z,995.56
2018-12-08T11:12:25.589Z,995.53
2018-12-08T11:13:25.514Z,995.53
2018-12-08T11:14:25.428Z,995.46
2018-12-08T11:15:25.340Z,995.52
2018-12-08T11:16:25.253Z,995.41
2018-12-08T11:17:25.177Z,995.39
2018-12-08T11:18:25.106Z,995.36
2018-12-08T11:19:25.015Z,995.40
2018-12-08T11:20:24.928Z,995.32
2018-12-08T11:21:24.840Z,995.36
2018-12-08T11:22:24.755Z,995.37
2018-12-08T11:23:24.678Z,995.31
2018-12-08T11:24:24.593Z,995.31
2018-12-08T11:25:24.504Z,995.33
2018-12-08T11:26:24.429Z,995.28
2018-12-08T11:27:24.341Z,995.22
2018-12-08T11:28:24.256Z,995.22
2018-12-08T11:29:24.166Z,995.19
2018-12-08T11:30:24.093Z,995.23
2018-12-08T11:31:24.005Z,995.24
2018-12-08T11:32:23.916Z,995.12
2018-12-08T11:33:23.841Z,995.18
2018-12-08T11:34:23.755Z,995.19
2018-12-08T11:35:23.680Z,995.10
2018-12-08T11:36:23.592Z,995.14
2018-12-08T11:37:23.510Z,995.05
2018-12-08T11:38:23.417Z,995.15
2018-12-08T11:39:23.331Z,995.13
2018-12-08T11:40:23.255Z,995.15
2018-12-08T11:41:23.168Z,995.11
2018-12-08T11:42:23.081Z,995.02
2018-12-08T11:43:23.622Z,994.97
2018-12-08T11:44:22.918Z,994.96
2018-12-08T11:45:22.832Z,994.89
2018-12-08T11:46:22.756Z,995.04
2018-12-08T11:47:22.669Z,994.98
2018-12-08T11:48:22.583Z,994.88
2018-12-08T11:49:22.508Z,994.93
2018-12-08T11:50:22.419Z,994.87
2018-12-08T11:51:22.331Z,994.93
2018-12-08T11:52:22.257Z,995.02
2018-12-08T11:53:22.169Z,995.02
2018-12-08T11:54:22.082Z,994.93
2018-12-08T11:55:29.968Z,994.94
2018-12-08T11:56:21.919Z,994.96
2018-12-08T11:57:21.833Z,994.88
2018-12-08T11:58:21.758Z,994.98
2018-12-08T11:59:21.670Z,994.94
2018-12-08T12:00:21.583Z,994.92
2018-12-08T12:01:21.510Z,994.92
2018-12-08T12:02:21.423Z,994.87
2018-12-08T12:03:21.332Z,994.87
2018-12-08T12:04:21.339Z,994.95
2018-12-08T12:05:21.169Z,994.79
2018-12-08T12:06:21.089Z,994.81
2018-12-08T12:07:21.007Z,994.85
2018-12-08T12:08:20.922Z,994.91
2018-12-08T12:09:20.833Z,994.81
2018-12-08T12:10:20.759Z,994.83
2018-12-08T12:11:20.670Z,994.82
2018-12-08T12:12:20.585Z,994.80
2018-12-08T12:13:20.509Z,994.77
2018-12-08T12:14:20.424Z,994.87
2018-12-08T12:15:20.334Z,994.75
2018-12-08T12:16:20.260Z,994.78
2018-12-08T12:17:20.171Z,994.83
2018-12-08T12:18:20.085Z,994.70
2018-12-08T12:19:20.010Z,994.69
2018-12-08T12:20:19.921Z,994.75
2018-12-08T12:21:19.846Z,994.69
2018-12-08T12:22:19.762Z,994.84
2018-12-08T12:23:19.685Z,994.73
2018-12-08T12:24:19.585Z,994.67
2018-12-08T12:25:19.510Z,994.77
2018-12-08T12:26:19.423Z,994.67
2018-12-08T12:27:19.347Z,994.63